sensor_id;sensor_type;location;lat;lon;timestamp;temperature;humidity
31387;DHT22;69978;50.096;8.448;2023-07-24T00:01:12;20.90;99.90
31387;DHT22;69978;50.096;8.448;2023-07-24T00:03:37;20.90;99.90
31387;DHT22;69978;50.096;8.448;2023-07-24T00:06:03;20.90;99.90
31387;DHT22;69978;50.096;8.448;2023-07-24T00:08:28;20.80;99.90
31387;DHT22;69978;50.096;8.448;2023-07-24T00:10:54;20.80;99.90
31387;DHT22;69978;50.096;8.448;2023-07-24T00:13:19;20.80;99.90
31387;DHT22;69978;50.096;8.448;2023-07-24T00:15:45;20.80;99.90
31387;DHT22;69978;50.096;8.448;2023-07-24T00:18:11;20.70;99.90
31387;DHT22;69978;50.096;8.448;2023-07-24T00:20:36;20.80;99.90
31387;DHT22;69978;50.096;8.448;2023-07-24T00:23:02;20.80;99.90
31387;DHT22;69978;50.096;8.448;2023-07-24T00:25:27;20.80;99.90
31387;DHT22;69978;50.096;8.448;2023-07-24T00:27:53;20.80;99.90
31387;DHT22;69978;50.096;8.448;2023-07-24T00:30:18;20.80;99.90
31387;DHT22;69978;50.096;8.448;2023-07-24T00:32:44;20.90;99.90
31387;DHT22;69978;50.096;8.448;2023-07-24T00:35:10;20.80;99.90
31387;DHT22;69978;50.096;8.448;2023-07-24T00:37:35;20.90;99.90
31387;DHT22;69978;50.096;8.448;2023-07-24T00:40:02;20.90;99.90
31387;DHT22;69978;50.096;8.448;2023-07-24T00:42:28;20.90;99.90
31387;DHT22;69978;50.096;8.448;2023-07-24T00:44:53;20.90;99.90
31387;DHT22;69978;50.096;8.448;2023-07-24T00:47:19;20.90;99.90
31387;DHT22;69978;50.096;8.448;2023-07-24T00:49:44;21.00;99.90
31387;DHT22;69978;50.096;8.448;2023-07-24T00:52:11;21.00;99.90
31387;DHT22;69978;50.096;8.448;2023-07-24T00:54:37;21.00;99.90
31387;DHT22;69978;50.096;8.448;2023-07-24T00:57:04;21.00;99.90
31387;DHT22;69978;50.096;8.448;2023-07-24T00:59:30;21.00;99.90
31387;DHT22;69978;50.096;8.448;2023-07-24T01:01:56;20.90;99.90
31387;DHT22;69978;50.096;8.448;2023-07-24T01:04:22;20.90;99.90
31387;DHT22;69978;50.096;8.448;2023-07-24T01:06:49;21.00;99.90
31387;DHT22;69978;50.096;8.448;2023-07-24T01:09:14;21.00;99.90
31387;DHT22;69978;50.096;8.448;2023-07-24T01:11:46;21.00;99.90
31387;DHT22;69978;50.096;8.448;2023-07-24T01:14:21;20.90;99.90
31387;DHT22;69978;50.096;8.448;2023-07-24T01:16:48;21.00;99.90
31387;DHT22;69978;50.096;8.448;2023-07-24T01:19:40;20.90;99.90
31387;DHT22;69978;50.096;8.448;2023-07-24T01:22:30;20.90;99.90
31387;DHT22;69978;50.096;8.448;2023-07-24T01:25:11;20.90;99.90
31387;DHT22;69978;50.096;8.448;2023-07-24T01:27:43;20.90;99.90
31387;DHT22;69978;50.096;8.448;2023-07-24T01:30:10;20.90;99.90
31387;DHT22;69978;50.096;8.448;2023-07-24T01:32:36;20.80;99.90
31387;DHT22;69978;50.096;8.448;2023-07-24T01:35:03;20.90;99.90
31387;DHT22;69978;50.096;8.448;2023-07-24T01:37:29;20.80;99.90
31387;DHT22;69978;50.096;8.448;2023-07-24T01:39:56;20.80;99.90
31387;DHT22;69978;50.096;8.448;2023-07-24T01:42:23;20.80;99.90
31387;DHT22;69978;50.096;8.448;2023-07-24T01:44:54;20.80;99.90
31387;DHT22;69978;50.096;8.448;2023-07-24T01:47:20;20.80;99.90
31387;DHT22;69978;50.096;8.448;2023-07-24T01:49:45;20.80;99.90
31387;DHT22;69978;50.096;8.448;2023-07-24T01:52:11;20.90;99.90
31387;DHT22;69978;50.096;8.448;2023-07-24T01:54:37;20.90;99.90
31387;DHT22;69978;50.096;8.448;2023-07-24T01:57:02;20.90;99.90
31387;DHT22;69978;50.096;8.448;2023-07-24T01:59:28;21.00;99.90
31387;DHT22;69978;50.096;8.448;2023-07-24T02:01:54;21.00;99.90
31387;DHT22;69978;50.096;8.448;2023-07-24T02:04:19;20.90;99.90
31387;DHT22;69978;50.096;8.448;2023-07-24T02:06:50;20.90;99.90
31387;DHT22;69978;50.096;8.448;2023-07-24T02:09:19;20.90;99.90
31387;DHT22;69978;50.096;8.448;2023-07-24T02:11:45;20.90;99.90
31387;DHT22;69978;50.096;8.448;2023-07-24T02:14:12;20.90;99.90
31387;DHT22;69978;50.096;8.448;2023-07-24T02:16:38;20.90;99.90
31387;DHT22;69978;50.096;8.448;2023-07-24T02:19:04;20.80;99.90
31387;DHT22;69978;50.096;8.448;2023-07-24T02:21:30;20.70;99.90
31387;DHT22;69978;50.096;8.448;2023-07-24T02:23:56;20.70;99.90
31387;DHT22;69978;50.096;8.448;2023-07-24T02:26:22;20.60;99.90
31387;DHT22;69978;50.096;8.448;2023-07-24T02:28:47;20.50;99.90
31387;DHT22;69978;50.096;8.448;2023-07-24T02:31:13;20.50;99.90
31387;DHT22;69978;50.096;8.448;2023-07-24T02:33:39;20.40;99.90
31387;DHT22;69978;50.096;8.448;2023-07-24T02:36:04;20.40;99.90
31387;DHT22;69978;50.096;8.448;2023-07-24T02:38:30;20.30;99.90
31387;DHT22;69978;50.096;8.448;2023-07-24T02:40:55;20.20;99.90
31387;DHT22;69978;50.096;8.448;2023-07-24T02:43:21;20.20;99.90
31387;DHT22;69978;50.096;8.448;2023-07-24T02:45:47;20.10;99.90
31387;DHT22;69978;50.096;8.448;2023-07-24T02:48:12;20.10;99.90
31387;DHT22;69978;50.096;8.448;2023-07-24T02:50:37;20.10;99.90
31387;DHT22;69978;50.096;8.448;2023-07-24T02:53:03;20.10;99.90
31387;DHT22;69978;50.096;8.448;2023-07-24T02:55:29;20.00;99.90
31387;DHT22;69978;50.096;8.448;2023-07-24T02:57:55;20.00;99.90
31387;DHT22;69978;50.096;8.448;2023-07-24T03:00:21;19.90;99.90
31387;DHT22;69978;50.096;8.448;2023-07-24T03:02:46;19.90;99.90
31387;DHT22;69978;50.096;8.448;2023-07-24T03:05:12;19.80;99.90
31387;DHT22;69978;50.096;8.448;2023-07-24T03:07:37;19.70;99.90
31387;DHT22;69978;50.096;8.448;2023-07-24T03:10:03;19.70;99.90
31387;DHT22;69978;50.096;8.448;2023-07-24T03:12:29;19.70;99.90
31387;DHT22;69978;50.096;8.448;2023-07-24T03:14:54;19.60;99.90
31387;DHT22;69978;50.096;8.448;2023-07-24T03:17:20;19.60;99.90
31387;DHT22;69978;50.096;8.448;2023-07-24T03:19:47;19.60;99.90
31387;DHT22;69978;50.096;8.448;2023-07-24T03:22:13;19.50;99.90
31387;DHT22;69978;50.096;8.448;2023-07-24T03:24:39;19.50;99.90
31387;DHT22;69978;50.096;8.448;2023-07-24T03:27:04;19.50;99.90
31387;DHT22;69978;50.096;8.448;2023-07-24T03:29:30;19.40;99.90
31387;DHT22;69978;50.096;8.448;2023-07-24T03:31:55;19.30;99.90
31387;DHT22;69978;50.096;8.448;2023-07-24T03:34:21;19.20;99.90
31387;DHT22;69978;50.096;8.448;2023-07-24T03:36:46;19.20;99.90
31387;DHT22;69978;50.096;8.448;2023-07-24T03:39:12;19.20;99.90
31387;DHT22;69978;50.096;8.448;2023-07-24T03:41:38;19.20;99.90
31387;DHT22;69978;50.096;8.448;2023-07-24T03:44:04;19.20;99.90
31387;DHT22;69978;50.096;8.448;2023-07-24T03:46:32;19.20;99.90
31387;DHT22;69978;50.096;8.448;2023-07-24T03:48:58;19.10;99.90
31387;DHT22;69978;50.096;8.448;2023-07-24T03:51:24;19.10;99.90
31387;DHT22;69978;50.096;8.448;2023-07-24T03:53:49;19.00;99.90
31387;DHT22;69978;50.096;8.448;2023-07-24T03:56:15;19.00;99.90
31387;DHT22;69978;50.096;8.448;2023-07-24T03:58:40;19.00;99.90
31387;DHT22;69978;50.096;8.448;2023-07-24T04:01:07;18.90;99.90
31387;DHT22;69978;50.096;8.448;2023-07-24T04:03:32;18.90;99.90
31387;DHT22;69978;50.096;8.448;2023-07-24T04:05:59;18.90;99.90
31387;DHT22;69978;50.096;8.448;2023-07-24T04:08:24;18.80;99.90
31387;DHT22;69978;50.096;8.448;2023-07-24T04:10:50;18.80;99.90
31387;DHT22;69978;50.096;8.448;2023-07-24T04:13:15;18.70;99.90
31387;DHT22;69978;50.096;8.448;2023-07-24T04:15:41;18.70;99.90
31387;DHT22;69978;50.096;8.448;2023-07-24T04:18:07;18.70;99.90
31387;DHT22;69978;50.096;8.448;2023-07-24T04:20:32;18.70;99.90
31387;DHT22;69978;50.096;8.448;2023-07-24T04:22:58;18.70;99.90
31387;DHT22;69978;50.096;8.448;2023-07-24T04:25:23;18.70;99.90
31387;DHT22;69978;50.096;8.448;2023-07-24T04:27:49;18.70;99.90
31387;DHT22;69978;50.096;8.448;2023-07-24T04:30:14;18.70;99.90
31387;DHT22;69978;50.096;8.448;2023-07-24T04:32:40;18.70;99.90
31387;DHT22;69978;50.096;8.448;2023-07-24T04:35:06;18.80;99.90
31387;DHT22;69978;50.096;8.448;2023-07-24T04:37:32;18.80;99.90
31387;DHT22;69978;50.096;8.448;2023-07-24T04:39:57;18.80;99.90
31387;DHT22;69978;50.096;8.448;2023-07-24T04:42:24;18.80;99.90
31387;DHT22;69978;50.096;8.448;2023-07-24T04:44:49;18.80;99.90
31387;DHT22;69978;50.096;8.448;2023-07-24T04:47:16;18.80;99.90
31387;DHT22;69978;50.096;8.448;2023-07-24T04:49:42;18.90;99.90
31387;DHT22;69978;50.096;8.448;2023-07-24T04:52:08;18.90;99.90
31387;DHT22;69978;50.096;8.448;2023-07-24T04:54:33;19.00;99.90
31387;DHT22;69978;50.096;8.448;2023-07-24T04:56:59;19.00;99.90
31387;DHT22;69978;50.096;8.448;2023-07-24T04:59:24;19.10;99.90
31387;DHT22;69978;50.096;8.448;2023-07-24T05:01:50;19.10;99.90
31387;DHT22;69978;50.096;8.448;2023-07-24T05:04:16;19.20;99.90
31387;DHT22;69978;50.096;8.448;2023-07-24T05:06:41;19.20;99.90
31387;DHT22;69978;50.096;8.448;2023-07-24T05:09:07;19.20;99.90
31387;DHT22;69978;50.096;8.448;2023-07-24T05:11:32;19.20;99.90
31387;DHT22;69978;50.096;8.448;2023-07-24T05:13:58;19.20;99.90
31387;DHT22;69978;50.096;8.448;2023-07-24T05:16:24;19.20;99.90
31387;DHT22;69978;50.096;8.448;2023-07-24T05:18:49;19.30;99.90
31387;DHT22;69978;50.096;8.448;2023-07-24T05:21:15;19.30;99.90
31387;DHT22;69978;50.096;8.448;2023-07-24T05:23:40;19.30;99.90
31387;DHT22;69978;50.096;8.448;2023-07-24T05:26:06;19.30;99.90
31387;DHT22;69978;50.096;8.448;2023-07-24T05:28:32;19.30;99.90
31387;DHT22;69978;50.096;8.448;2023-07-24T05:31:02;19.30;99.90
31387;DHT22;69978;50.096;8.448;2023-07-24T05:33:28;19.30;99.90
31387;DHT22;69978;50.096;8.448;2023-07-24T05:36:02;19.40;99.90
31387;DHT22;69978;50.096;8.448;2023-07-24T05:38:27;19.40;99.90
31387;DHT22;69978;50.096;8.448;2023-07-24T05:40:57;19.40;99.90
31387;DHT22;69978;50.096;8.448;2023-07-24T05:43:23;19.50;99.90
31387;DHT22;69978;50.096;8.448;2023-07-24T05:45:50;19.50;99.90
31387;DHT22;69978;50.096;8.448;2023-07-24T05:48:16;19.50;99.90
31387;DHT22;69978;50.096;8.448;2023-07-24T05:50:42;19.50;99.90
31387;DHT22;69978;50.096;8.448;2023-07-24T05:53:07;19.60;99.90
31387;DHT22;69978;50.096;8.448;2023-07-24T05:55:33;19.60;99.90
31387;DHT22;69978;50.096;8.448;2023-07-24T05:57:58;19.60;99.90
31387;DHT22;69978;50.096;8.448;2023-07-24T06:00:24;19.70;99.90
31387;DHT22;69978;50.096;8.448;2023-07-24T06:02:49;19.70;99.90
31387;DHT22;69978;50.096;8.448;2023-07-24T06:05:15;19.70;99.90
31387;DHT22;69978;50.096;8.448;2023-07-24T06:07:40;19.70;99.90
31387;DHT22;69978;50.096;8.448;2023-07-24T06:10:06;19.70;99.90
31387;DHT22;69978;50.096;8.448;2023-07-24T06:12:32;19.90;99.90
31387;DHT22;69978;50.096;8.448;2023-07-24T06:14:58;19.90;99.90
31387;DHT22;69978;50.096;8.448;2023-07-24T06:17:23;19.80;99.90
31387;DHT22;69978;50.096;8.448;2023-07-24T06:19:49;19.80;99.90
31387;DHT22;69978;50.096;8.448;2023-07-24T06:22:14;19.80;99.90
31387;DHT22;69978;50.096;8.448;2023-07-24T06:24:40;19.90;99.90
31387;DHT22;69978;50.096;8.448;2023-07-24T06:27:06;19.90;99.90
31387;DHT22;69978;50.096;8.448;2023-07-24T06:29:34;19.90;99.90
31387;DHT22;69978;50.096;8.448;2023-07-24T06:32:00;20.00;99.90
31387;DHT22;69978;50.096;8.448;2023-07-24T06:34:25;20.10;99.90
31387;DHT22;69978;50.096;8.448;2023-07-24T06:36:51;20.20;99.90
31387;DHT22;69978;50.096;8.448;2023-07-24T06:39:16;20.20;99.90
31387;DHT22;69978;50.096;8.448;2023-07-24T06:41:42;20.30;99.90
31387;DHT22;69978;50.096;8.448;2023-07-24T06:44:07;20.30;99.90
31387;DHT22;69978;50.096;8.448;2023-07-24T06:46:33;20.50;99.90
31387;DHT22;69978;50.096;8.448;2023-07-24T06:48:58;20.50;99.90
31387;DHT22;69978;50.096;8.448;2023-07-24T06:51:24;20.60;99.90
31387;DHT22;69978;50.096;8.448;2023-07-24T06:53:50;20.60;99.90
31387;DHT22;69978;50.096;8.448;2023-07-24T06:56:15;20.70;99.90
31387;DHT22;69978;50.096;8.448;2023-07-24T06:58:41;20.60;99.90
31387;DHT22;69978;50.096;8.448;2023-07-24T07:01:06;20.80;99.90
31387;DHT22;69978;50.096;8.448;2023-07-24T07:03:32;20.90;99.90
31387;DHT22;69978;50.096;8.448;2023-07-24T07:06:00;21.10;99.90
31387;DHT22;69978;50.096;8.448;2023-07-24T07:08:26;21.10;99.90
31387;DHT22;69978;50.096;8.448;2023-07-24T07:10:59;21.20;99.90
31387;DHT22;69978;50.096;8.448;2023-07-24T07:13:25;21.20;99.90
31387;DHT22;69978;50.096;8.448;2023-07-24T07:15:51;21.30;99.90
31387;DHT22;69978;50.096;8.448;2023-07-24T07:18:16;21.40;99.90
31387;DHT22;69978;50.096;8.448;2023-07-24T07:20:49;21.40;99.90
31387;DHT22;69978;50.096;8.448;2023-07-24T07:23:15;21.40;99.90
31387;DHT22;69978;50.096;8.448;2023-07-24T07:25:41;21.50;99.90
31387;DHT22;69978;50.096;8.448;2023-07-24T07:28:08;21.60;99.90
31387;DHT22;69978;50.096;8.448;2023-07-24T07:30:34;21.60;99.90
31387;DHT22;69978;50.096;8.448;2023-07-24T07:33:00;21.70;99.90
31387;DHT22;69978;50.096;8.448;2023-07-24T07:35:25;21.70;99.90
31387;DHT22;69978;50.096;8.448;2023-07-24T07:37:51;21.70;99.90
31387;DHT22;69978;50.096;8.448;2023-07-24T07:40:17;21.70;99.90
31387;DHT22;69978;50.096;8.448;2023-07-24T07:42:42;21.70;99.90
31387;DHT22;69978;50.096;8.448;2023-07-24T07:45:10;21.80;99.90
31387;DHT22;69978;50.096;8.448;2023-07-24T07:47:36;21.70;99.90
31387;DHT22;69978;50.096;8.448;2023-07-24T07:50:02;21.80;99.90
31387;DHT22;69978;50.096;8.448;2023-07-24T07:52:28;21.80;99.90
31387;DHT22;69978;50.096;8.448;2023-07-24T07:54:53;21.90;99.90
31387;DHT22;69978;50.096;8.448;2023-07-24T07:57:19;21.90;99.90
31387;DHT22;69978;50.096;8.448;2023-07-24T07:59:45;21.90;99.90
31387;DHT22;69978;50.096;8.448;2023-07-24T08:02:10;21.90;99.90
31387;DHT22;69978;50.096;8.448;2023-07-24T08:04:36;22.00;99.90
31387;DHT22;69978;50.096;8.448;2023-07-24T08:07:01;21.90;99.90
31387;DHT22;69978;50.096;8.448;2023-07-24T08:09:28;21.90;99.90
31387;DHT22;69978;50.096;8.448;2023-07-24T08:11:53;21.90;99.90
31387;DHT22;69978;50.096;8.448;2023-07-24T08:14:19;22.00;99.90
31387;DHT22;69978;50.096;8.448;2023-07-24T08:16:47;22.00;99.90
31387;DHT22;69978;50.096;8.448;2023-07-24T08:19:13;22.00;99.90
31387;DHT22;69978;50.096;8.448;2023-07-24T08:21:38;22.00;99.90
31387;DHT22;69978;50.096;8.448;2023-07-24T08:24:05;22.10;99.90
31387;DHT22;69978;50.096;8.448;2023-07-24T08:26:31;22.10;99.90
31387;DHT22;69978;50.096;8.448;2023-07-24T08:28:56;22.20;99.90
31387;DHT22;69978;50.096;8.448;2023-07-24T08:31:22;22.10;99.90
31387;DHT22;69978;50.096;8.448;2023-07-24T08:33:48;22.10;99.90
31387;DHT22;69978;50.096;8.448;2023-07-24T08:38:49;22.20;99.90
31387;DHT22;69978;50.096;8.448;2023-07-24T08:41:15;22.20;99.90
31387;DHT22;69978;50.096;8.448;2023-07-24T08:43:43;22.30;99.90
31387;DHT22;69978;50.096;8.448;2023-07-24T08:46:10;22.40;99.90
31387;DHT22;69978;50.096;8.448;2023-07-24T08:48:36;22.50;99.90
31387;DHT22;69978;50.096;8.448;2023-07-24T08:51:12;22.60;99.90
31387;DHT22;69978;50.096;8.448;2023-07-24T08:53:40;22.70;99.90
31387;DHT22;69978;50.096;8.448;2023-07-24T08:56:08;22.70;99.90
31387;DHT22;69978;50.096;8.448;2023-07-24T08:58:34;22.80;99.90
31387;DHT22;69978;50.096;8.448;2023-07-24T09:01:01;23.00;99.90
31387;DHT22;69978;50.096;8.448;2023-07-24T09:03:28;23.30;99.90
31387;DHT22;69978;50.096;8.448;2023-07-24T09:05:54;23.40;99.90
31387;DHT22;69978;50.096;8.448;2023-07-24T09:10:55;23.60;99.90
31387;DHT22;69978;50.096;8.448;2023-07-24T09:13:21;23.60;99.90
31387;DHT22;69978;50.096;8.448;2023-07-24T09:15:47;23.60;99.90
31387;DHT22;69978;50.096;8.448;2023-07-24T09:18:12;23.40;99.90
31387;DHT22;69978;50.096;8.448;2023-07-24T09:20:40;23.40;99.90
31387;DHT22;69978;50.096;8.448;2023-07-24T09:23:07;23.50;99.90
31387;DHT22;69978;50.096;8.448;2023-07-24T09:25:34;23.50;99.90
31387;DHT22;69978;50.096;8.448;2023-07-24T09:28:00;23.60;99.90
31387;DHT22;69978;50.096;8.448;2023-07-24T09:30:26;23.40;99.90
31387;DHT22;69978;50.096;8.448;2023-07-24T09:32:53;23.40;99.90
31387;DHT22;69978;50.096;8.448;2023-07-24T09:35:19;23.40;99.90
31387;DHT22;69978;50.096;8.448;2023-07-24T09:37:46;23.40;99.90
31387;DHT22;69978;50.096;8.448;2023-07-24T09:40:14;23.50;99.90
31387;DHT22;69978;50.096;8.448;2023-07-24T09:42:40;23.60;99.90
31387;DHT22;69978;50.096;8.448;2023-07-24T09:45:06;23.80;99.90
31387;DHT22;69978;50.096;8.448;2023-07-24T09:47:51;24.00;99.90
31387;DHT22;69978;50.096;8.448;2023-07-24T09:50:19;24.20;99.90
31387;DHT22;69978;50.096;8.448;2023-07-24T09:53:46;24.30;99.90
31387;DHT22;69978;50.096;8.448;2023-07-24T09:56:09;24.50;99.90
31387;DHT22;69978;50.096;8.448;2023-07-24T09:58:39;24.30;99.90
31387;DHT22;69978;50.096;8.448;2023-07-24T10:01:31;24.30;99.90
31387;DHT22;69978;50.096;8.448;2023-07-24T10:04:04;24.20;99.90
31387;DHT22;69978;50.096;8.448;2023-07-24T10:06:36;24.30;99.90
31387;DHT22;69978;50.096;8.448;2023-07-24T10:09:10;24.30;99.90
31387;DHT22;69978;50.096;8.448;2023-07-24T10:11:49;24.20;99.90
31387;DHT22;69978;50.096;8.448;2023-07-24T10:14:27;24.20;99.90
31387;DHT22;69978;50.096;8.448;2023-07-24T10:16:55;24.20;99.90
31387;DHT22;69978;50.096;8.448;2023-07-24T10:19:24;24.30;99.90
31387;DHT22;69978;50.096;8.448;2023-07-24T10:21:54;24.30;99.90
31387;DHT22;69978;50.096;8.448;2023-07-24T10:24:20;24.20;99.90
31387;DHT22;69978;50.096;8.448;2023-07-24T10:26:49;24.20;99.90
31387;DHT22;69978;50.096;8.448;2023-07-24T10:29:24;24.20;99.90
31387;DHT22;69978;50.096;8.448;2023-07-24T10:31:53;24.20;99.90
31387;DHT22;69978;50.096;8.448;2023-07-24T10:34:36;24.30;99.90
31387;DHT22;69978;50.096;8.448;2023-07-24T10:37:02;24.30;99.90
31387;DHT22;69978;50.096;8.448;2023-07-24T10:39:38;24.50;99.90
31387;DHT22;69978;50.096;8.448;2023-07-24T10:42:12;24.60;99.90
31387;DHT22;69978;50.096;8.448;2023-07-24T10:44:57;24.70;99.90
31387;DHT22;69978;50.096;8.448;2023-07-24T10:47:52;24.80;99.90
31387;DHT22;69978;50.096;8.448;2023-07-24T10:50:21;24.70;99.90
31387;DHT22;69978;50.096;8.448;2023-07-24T10:52:47;24.70;99.90
31387;DHT22;69978;50.096;8.448;2023-07-24T10:55:15;24.60;99.90
31387;DHT22;69978;50.096;8.448;2023-07-24T10:57:55;24.60;99.90
31387;DHT22;69978;50.096;8.448;2023-07-24T11:00:25;24.70;99.90
31387;DHT22;69978;50.096;8.448;2023-07-24T11:02:54;24.60;99.90
31387;DHT22;69978;50.096;8.448;2023-07-24T11:05:29;24.70;99.90
31387;DHT22;69978;50.096;8.448;2023-07-24T11:07:55;25.00;99.90
31387;DHT22;69978;50.096;8.448;2023-07-24T11:10:24;25.20;99.90
31387;DHT22;69978;50.096;8.448;2023-07-24T11:13:12;25.20;99.90
31387;DHT22;69978;50.096;8.448;2023-07-24T11:16:03;25.10;99.90
31387;DHT22;69978;50.096;8.448;2023-07-24T11:18:30;24.80;99.90
31387;DHT22;69978;50.096;8.448;2023-07-24T11:21:02;24.70;99.90
31387;DHT22;69978;50.096;8.448;2023-07-24T11:23:28;24.60;99.90
31387;DHT22;69978;50.096;8.448;2023-07-24T11:25:57;24.70;99.90
31387;DHT22;69978;50.096;8.448;2023-07-24T11:28:22;24.60;99.90
31387;DHT22;69978;50.096;8.448;2023-07-24T11:30:49;24.60;99.90
31387;DHT22;69978;50.096;8.448;2023-07-24T11:33:17;24.50;99.90
31387;DHT22;69978;50.096;8.448;2023-07-24T11:36:01;24.60;99.90
31387;DHT22;69978;50.096;8.448;2023-07-24T11:38:30;24.70;99.90
31387;DHT22;69978;50.096;8.448;2023-07-24T11:41:04;24.70;99.90
31387;DHT22;69978;50.096;8.448;2023-07-24T11:43:30;24.70;99.90
31387;DHT22;69978;50.096;8.448;2023-07-24T11:45:56;24.70;99.90
31387;DHT22;69978;50.096;8.448;2023-07-24T11:48:27;24.80;99.90
31387;DHT22;69978;50.096;8.448;2023-07-24T11:50:56;24.80;99.90
31387;DHT22;69978;50.096;8.448;2023-07-24T11:53:30;24.80;99.90
31387;DHT22;69978;50.096;8.448;2023-07-24T11:56:19;24.90;99.90
31387;DHT22;69978;50.096;8.448;2023-07-24T11:58:50;25.00;99.90
31387;DHT22;69978;50.096;8.448;2023-07-24T12:01:18;25.30;99.90
31387;DHT22;69978;50.096;8.448;2023-07-24T12:03:44;25.60;99.90
31387;DHT22;69978;50.096;8.448;2023-07-24T12:06:19;25.60;99.90
31387;DHT22;69978;50.096;8.448;2023-07-24T12:08:45;25.70;99.90
31387;DHT22;69978;50.096;8.448;2023-07-24T12:11:17;25.60;99.90
31387;DHT22;69978;50.096;8.448;2023-07-24T12:13:52;25.50;99.90
31387;DHT22;69978;50.096;8.448;2023-07-24T12:16:22;25.80;99.90
31387;DHT22;69978;50.096;8.448;2023-07-24T12:18:47;26.10;99.90
31387;DHT22;69978;50.096;8.448;2023-07-24T12:21:16;26.50;99.90
31387;DHT22;69978;50.096;8.448;2023-07-24T12:23:42;26.70;99.90
31387;DHT22;69978;50.096;8.448;2023-07-24T12:26:18;26.80;99.90
31387;DHT22;69978;50.096;8.448;2023-07-24T12:28:47;27.40;99.90
31387;DHT22;69978;50.096;8.448;2023-07-24T12:31:17;27.50;99.90
31387;DHT22;69978;50.096;8.448;2023-07-24T12:33:54;27.50;99.90
31387;DHT22;69978;50.096;8.448;2023-07-24T12:36:20;27.60;99.90
31387;DHT22;69978;50.096;8.448;2023-07-24T12:38:45;27.30;99.90
31387;DHT22;69978;50.096;8.448;2023-07-24T12:41:19;27.20;99.90
31387;DHT22;69978;50.096;8.448;2023-07-24T12:43:47;27.00;99.90
31387;DHT22;69978;50.096;8.448;2023-07-24T12:46:13;26.70;99.90
31387;DHT22;69978;50.096;8.448;2023-07-24T12:48:41;26.60;99.90
31387;DHT22;69978;50.096;8.448;2023-07-24T12:51:12;26.50;99.90
31387;DHT22;69978;50.096;8.448;2023-07-24T12:53:41;26.50;99.90
31387;DHT22;69978;50.096;8.448;2023-07-24T12:56:28;26.10;99.90
31387;DHT22;69978;50.096;8.448;2023-07-24T12:58:53;25.90;99.90
31387;DHT22;69978;50.096;8.448;2023-07-24T13:01:21;25.70;99.90
31387;DHT22;69978;50.096;8.448;2023-07-24T13:03:47;25.40;99.90
31387;DHT22;69978;50.096;8.448;2023-07-24T13:06:15;25.10;99.90
31387;DHT22;69978;50.096;8.448;2023-07-24T13:08:41;25.20;99.90
31387;DHT22;69978;50.096;8.448;2023-07-24T13:11:12;25.40;99.90
31387;DHT22;69978;50.096;8.448;2023-07-24T13:13:38;26.00;99.90
31387;DHT22;69978;50.096;8.448;2023-07-24T13:16:06;26.60;99.90
31387;DHT22;69978;50.096;8.448;2023-07-24T13:18:35;26.90;99.90
31387;DHT22;69978;50.096;8.448;2023-07-24T13:21:01;26.80;99.90
31387;DHT22;69978;50.096;8.448;2023-07-24T13:26:18;27.20;99.90
31387;DHT22;69978;50.096;8.448;2023-07-24T13:28:44;27.50;99.90
31387;DHT22;69978;50.096;8.448;2023-07-24T13:31:14;27.60;99.90
31387;DHT22;69978;50.096;8.448;2023-07-24T13:33:40;27.80;99.90
31387;DHT22;69978;50.096;8.448;2023-07-24T13:36:06;27.70;99.90
31387;DHT22;69978;50.096;8.448;2023-07-24T13:38:31;27.40;99.90
31387;DHT22;69978;50.096;8.448;2023-07-24T13:40:58;27.00;99.90
31387;DHT22;69978;50.096;8.448;2023-07-24T13:43:24;26.60;99.90
31387;DHT22;69978;50.096;8.448;2023-07-24T13:45:49;26.20;99.90
31387;DHT22;69978;50.096;8.448;2023-07-24T13:48:15;26.00;99.90
31387;DHT22;69978;50.096;8.448;2023-07-24T13:50:44;25.90;99.90
31387;DHT22;69978;50.096;8.448;2023-07-24T13:53:09;25.80;99.90
31387;DHT22;69978;50.096;8.448;2023-07-24T13:55:35;25.30;99.90
31387;DHT22;69978;50.096;8.448;2023-07-24T13:58:01;24.20;99.90
31387;DHT22;69978;50.096;8.448;2023-07-24T14:00:29;23.90;99.90
31387;DHT22;69978;50.096;8.448;2023-07-24T14:02:58;24.00;99.90
31387;DHT22;69978;50.096;8.448;2023-07-24T14:05:45;24.20;99.90
31387;DHT22;69978;50.096;8.448;2023-07-24T14:08:13;24.60;99.90
31387;DHT22;69978;50.096;8.448;2023-07-24T14:10:39;25.00;99.90
31387;DHT22;69978;50.096;8.448;2023-07-24T14:13:07;25.20;99.90
31387;DHT22;69978;50.096;8.448;2023-07-24T14:15:36;25.20;99.90
31387;DHT22;69978;50.096;8.448;2023-07-24T14:18:22;25.30;99.90
31387;DHT22;69978;50.096;8.448;2023-07-24T14:20:47;25.20;99.90
31387;DHT22;69978;50.096;8.448;2023-07-24T14:23:18;25.40;99.90
31387;DHT22;69978;50.096;8.448;2023-07-24T14:25:50;25.50;99.90
31387;DHT22;69978;50.096;8.448;2023-07-24T14:28:24;25.60;99.90
31387;DHT22;69978;50.096;8.448;2023-07-24T14:30:50;25.40;99.90
31387;DHT22;69978;50.096;8.448;2023-07-24T14:33:15;25.30;99.90
31387;DHT22;69978;50.096;8.448;2023-07-24T14:35:41;25.30;99.90
31387;DHT22;69978;50.096;8.448;2023-07-24T14:38:17;25.30;99.90
31387;DHT22;69978;50.096;8.448;2023-07-24T14:40:42;25.30;99.90
31387;DHT22;69978;50.096;8.448;2023-07-24T14:43:08;25.30;99.90
31387;DHT22;69978;50.096;8.448;2023-07-24T14:45:33;25.30;99.90
31387;DHT22;69978;50.096;8.448;2023-07-24T14:47:59;25.30;99.90
31387;DHT22;69978;50.096;8.448;2023-07-24T14:50:25;25.20;99.90
31387;DHT22;69978;50.096;8.448;2023-07-24T14:52:50;25.10;99.90
31387;DHT22;69978;50.096;8.448;2023-07-24T14:55:16;25.00;99.90
31387;DHT22;69978;50.096;8.448;2023-07-24T14:57:42;25.00;99.90
31387;DHT22;69978;50.096;8.448;2023-07-24T15:00:08;25.10;99.90
31387;DHT22;69978;50.096;8.448;2023-07-24T15:02:34;25.20;99.90
31387;DHT22;69978;50.096;8.448;2023-07-24T15:04:59;25.10;99.90
31387;DHT22;69978;50.096;8.448;2023-07-24T15:07:25;25.30;99.90
31387;DHT22;69978;50.096;8.448;2023-07-24T15:09:50;25.40;99.90
31387;DHT22;69978;50.096;8.448;2023-07-24T15:12:16;25.60;99.90
31387;DHT22;69978;50.096;8.448;2023-07-24T15:14:41;25.60;99.90
31387;DHT22;69978;50.096;8.448;2023-07-24T15:17:07;25.70;99.90
31387;DHT22;69978;50.096;8.448;2023-07-24T15:19:33;25.80;99.90
31387;DHT22;69978;50.096;8.448;2023-07-24T15:21:58;25.70;99.90
31387;DHT22;69978;50.096;8.448;2023-07-24T15:24:24;25.60;99.90
31387;DHT22;69978;50.096;8.448;2023-07-24T15:26:49;25.60;99.90
31387;DHT22;69978;50.096;8.448;2023-07-24T15:29:15;25.60;99.90
31387;DHT22;69978;50.096;8.448;2023-07-24T15:31:41;25.30;99.90
31387;DHT22;69978;50.096;8.448;2023-07-24T15:34:07;25.10;99.90
31387;DHT22;69978;50.096;8.448;2023-07-24T15:36:37;24.90;99.90
31387;DHT22;69978;50.096;8.448;2023-07-24T15:39:06;24.80;99.90
31387;DHT22;69978;50.096;8.448;2023-07-24T15:41:32;24.20;99.90